sensor_id;sensor_type;location;lat;lon;timestamp;temperature;humidity
38606;DHT22;24365;48.446;8.850;2023-04-19T00:04:45;10.00;68.50
38606;DHT22;24365;48.446;8.850;2023-04-19T00:09:47;9.90;68.90
38606;DHT22;24365;48.446;8.850;2023-04-19T00:14:47;9.90;69.10
38606;DHT22;24365;48.446;8.850;2023-04-19T00:19:48;9.90;68.90
38606;DHT22;24365;48.446;8.850;2023-04-19T00:24:49;9.90;69.20
38606;DHT22;24365;48.446;8.850;2023-04-19T00:29:50;9.90;69.30
38606;DHT22;24365;48.446;8.850;2023-04-19T00:34:51;9.80;69.70
38606;DHT22;24365;48.446;8.850;2023-04-19T00:39:52;9.80;69.70
38606;DHT22;24365;48.446;8.850;2023-04-19T00:44:53;9.80;69.50
38606;DHT22;24365;48.446;8.850;2023-04-19T00:49:54;9.80;69.80
38606;DHT22;24365;48.446;8.850;2023-04-19T00:54:55;9.80;69.60
38606;DHT22;24365;48.446;8.850;2023-04-19T00:59:57;9.80;69.60
38606;DHT22;24365;48.446;8.850;2023-04-19T01:04:58;9.70;70.00
38606;DHT22;24365;48.446;8.850;2023-04-19T01:09:59;9.70;70.10
38606;DHT22;24365;48.446;8.850;2023-04-19T01:15:00;9.70;70.00
38606;DHT22;24365;48.446;8.850;2023-04-19T01:20:02;9.70;70.20
38606;DHT22;24365;48.446;8.850;2023-04-19T01:25:04;9.60;70.60
38606;DHT22;24365;48.446;8.850;2023-04-19T01:30:06;9.60;70.60
38606;DHT22;24365;48.446;8.850;2023-04-19T01:35:07;9.60;71.00
38606;DHT22;24365;48.446;8.850;2023-04-19T01:40:11;9.50;70.90
38606;DHT22;24365;48.446;8.850;2023-04-19T01:45:12;9.50;71.20
38606;DHT22;24365;48.446;8.850;2023-04-19T01:50:13;9.50;70.60
38606;DHT22;24365;48.446;8.850;2023-04-19T01:55:13;9.50;70.70
38606;DHT22;24365;48.446;8.850;2023-04-19T02:00:14;9.50;70.50
38606;DHT22;24365;48.446;8.850;2023-04-19T02:05:17;9.50;70.90
38606;DHT22;24365;48.446;8.850;2023-04-19T02:10:18;9.40;71.00
38606;DHT22;24365;48.446;8.850;2023-04-19T02:15:19;9.40;70.90
38606;DHT22;24365;48.446;8.850;2023-04-19T02:20:20;9.40;71.40
38606;DHT22;24365;48.446;8.850;2023-04-19T02:25:22;9.30;71.70
38606;DHT22;24365;48.446;8.850;2023-04-19T02:30:23;9.30;71.80
38606;DHT22;24365;48.446;8.850;2023-04-19T02:35:24;9.30;71.90
38606;DHT22;24365;48.446;8.850;2023-04-19T02:40:25;9.30;71.90
38606;DHT22;24365;48.446;8.850;2023-04-19T02:45:26;9.20;72.30
38606;DHT22;24365;48.446;8.850;2023-04-19T02:50:28;9.30;72.50
38606;DHT22;24365;48.446;8.850;2023-04-19T02:55:29;9.30;72.10
38606;DHT22;24365;48.446;8.850;2023-04-19T03:00:41;9.20;72.20
38606;DHT22;24365;48.446;8.850;2023-04-19T03:05:46;9.20;72.80
38606;DHT22;24365;48.446;8.850;2023-04-19T03:10:47;9.20;72.70
38606;DHT22;24365;48.446;8.850;2023-04-19T03:15:48;9.20;72.50
38606;DHT22;24365;48.446;8.850;2023-04-19T03:20:49;9.10;72.30
38606;DHT22;24365;48.446;8.850;2023-04-19T03:25:51;9.10;72.20
38606;DHT22;24365;48.446;8.850;2023-04-19T03:31:18;9.10;72.70
38606;DHT22;24365;48.446;8.850;2023-04-19T03:36:28;9.10;72.20
38606;DHT22;24365;48.446;8.850;2023-04-19T03:41:29;9.10;72.30
38606;DHT22;24365;48.446;8.850;2023-04-19T03:46:40;9.10;72.30
38606;DHT22;24365;48.446;8.850;2023-04-19T03:51:49;9.10;72.20
38606;DHT22;24365;48.446;8.850;2023-04-19T03:56:57;8.90;72.90
38606;DHT22;24365;48.446;8.850;2023-04-19T04:01:59;9.00;72.80
38606;DHT22;24365;48.446;8.850;2023-04-19T04:07:00;9.00;73.80
38606;DHT22;24365;48.446;8.850;2023-04-19T04:12:02;8.90;73.30
38606;DHT22;24365;48.446;8.850;2023-04-19T04:17:04;8.80;73.60
38606;DHT22;24365;48.446;8.850;2023-04-19T04:22:05;8.80;73.90
38606;DHT22;24365;48.446;8.850;2023-04-19T04:27:10;8.80;74.20
38606;DHT22;24365;48.446;8.850;2023-04-19T04:32:13;8.70;74.20
38606;DHT22;24365;48.446;8.850;2023-04-19T04:37:18;8.70;74.00
38606;DHT22;24365;48.446;8.850;2023-04-19T04:42:20;8.80;74.00
38606;DHT22;24365;48.446;8.850;2023-04-19T04:47:21;8.80;73.80
38606;DHT22;24365;48.446;8.850;2023-04-19T04:52:29;8.70;73.60
38606;DHT22;24365;48.446;8.850;2023-04-19T04:57:43;8.70;73.90
38606;DHT22;24365;48.446;8.850;2023-04-19T05:02:50;8.80;74.00
38606;DHT22;24365;48.446;8.850;2023-04-19T05:07:51;8.80;73.60
38606;DHT22;24365;48.446;8.850;2023-04-19T05:12:52;8.90;74.10
38606;DHT22;24365;48.446;8.850;2023-04-19T05:17:53;8.90;73.60
38606;DHT22;24365;48.446;8.850;2023-04-19T05:22:59;8.80;73.60
38606;DHT22;24365;48.446;8.850;2023-04-19T05:28:01;8.90;74.00
38606;DHT22;24365;48.446;8.850;2023-04-19T05:33:08;8.90;73.70
38606;DHT22;24365;48.446;8.850;2023-04-19T05:38:09;8.90;73.80
38606;DHT22;24365;48.446;8.850;2023-04-19T05:43:10;9.00;73.50
38606;DHT22;24365;48.446;8.850;2023-04-19T05:48:11;8.90;73.60
38606;DHT22;24365;48.446;8.850;2023-04-19T05:53:12;9.00;73.60
38606;DHT22;24365;48.446;8.850;2023-04-19T05:58:14;9.00;73.60
38606;DHT22;24365;48.446;8.850;2023-04-19T06:03:15;9.00;73.50
38606;DHT22;24365;48.446;8.850;2023-04-19T06:08:16;9.00;73.70
38606;DHT22;24365;48.446;8.850;2023-04-19T06:13:17;9.10;73.90
38606;DHT22;24365;48.446;8.850;2023-04-19T06:18:18;9.10;73.50
38606;DHT22;24365;48.446;8.850;2023-04-19T06:23:19;9.20;73.10
38606;DHT22;24365;48.446;8.850;2023-04-19T06:28:20;9.10;72.50
38606;DHT22;24365;48.446;8.850;2023-04-19T06:33:21;9.10;72.70
38606;DHT22;24365;48.446;8.850;2023-04-19T06:38:22;9.10;72.60
38606;DHT22;24365;48.446;8.850;2023-04-19T06:43:23;9.10;72.60
38606;DHT22;24365;48.446;8.850;2023-04-19T06:48:24;9.20;72.30
38606;DHT22;24365;48.446;8.850;2023-04-19T06:53:25;9.20;72.40
38606;DHT22;24365;48.446;8.850;2023-04-19T06:58:27;9.30;71.90
38606;DHT22;24365;48.446;8.850;2023-04-19T07:03:30;9.30;71.00
38606;DHT22;24365;48.446;8.850;2023-04-19T07:08:31;9.30;70.50
38606;DHT22;24365;48.446;8.850;2023-04-19T07:13:32;9.50;70.80
38606;DHT22;24365;48.446;8.850;2023-04-19T07:18:32;9.60;70.50
38606;DHT22;24365;48.446;8.850;2023-04-19T07:23:33;9.70;69.50
38606;DHT22;24365;48.446;8.850;2023-04-19T07:28:34;9.80;68.70
38606;DHT22;24365;48.446;8.850;2023-04-19T07:33:35;9.90;68.30
38606;DHT22;24365;48.446;8.850;2023-04-19T07:38:37;10.00;67.50
38606;DHT22;24365;48.446;8.850;2023-04-19T07:43:38;10.00;67.10
38606;DHT22;24365;48.446;8.850;2023-04-19T07:48:39;9.90;67.30
38606;DHT22;24365;48.446;8.850;2023-04-19T07:53:40;10.00;68.00
38606;DHT22;24365;48.446;8.850;2023-04-19T07:58:41;10.00;67.00
38606;DHT22;24365;48.446;8.850;2023-04-19T08:03:42;9.90;68.20
38606;DHT22;24365;48.446;8.850;2023-04-19T08:08:44;10.00;67.20
38606;DHT22;24365;48.446;8.850;2023-04-19T08:13:45;10.00;67.50
38606;DHT22;24365;48.446;8.850;2023-04-19T08:18:46;10.10;67.00
38606;DHT22;24365;48.446;8.850;2023-04-19T08:23:51;10.20;66.70
38606;DHT22;24365;48.446;8.850;2023-04-19T08:28:51;10.30;66.40
38606;DHT22;24365;48.446;8.850;2023-04-19T08:33:52;10.30;65.90
38606;DHT22;24365;48.446;8.850;2023-04-19T08:38:54;10.40;65.70
38606;DHT22;24365;48.446;8.850;2023-04-19T08:43:55;10.50;64.90
38606;DHT22;24365;48.446;8.850;2023-04-19T08:48:58;10.60;63.80
38606;DHT22;24365;48.446;8.850;2023-04-19T08:53:59;10.70;64.10
38606;DHT22;24365;48.446;8.850;2023-04-19T08:59:00;10.70;63.30
38606;DHT22;24365;48.446;8.850;2023-04-19T09:04:05;10.80;62.60
38606;DHT22;24365;48.446;8.850;2023-04-19T09:09:14;10.80;62.20
38606;DHT22;24365;48.446;8.850;2023-04-19T09:14:16;10.90;61.50
38606;DHT22;24365;48.446;8.850;2023-04-19T09:19:17;11.20;60.50
38606;DHT22;24365;48.446;8.850;2023-04-19T09:24:18;11.40;59.90
38606;DHT22;24365;48.446;8.850;2023-04-19T09:29:19;11.70;58.40
38606;DHT22;24365;48.446;8.850;2023-04-19T09:34:20;11.70;57.40
38606;DHT22;24365;48.446;8.850;2023-04-19T09:39:32;11.80;56.80
38606;DHT22;24365;48.446;8.850;2023-04-19T09:44:35;12.00;55.90
38606;DHT22;24365;48.446;8.850;2023-04-19T09:49:36;12.00;56.60
38606;DHT22;24365;48.446;8.850;2023-04-19T09:54:37;12.20;57.10
38606;DHT22;24365;48.446;8.850;2023-04-19T09:59:38;12.50;54.80
38606;DHT22;24365;48.446;8.850;2023-04-19T10:04:42;12.80;54.60
38606;DHT22;24365;48.446;8.850;2023-04-19T10:09:44;12.90;54.00
38606;DHT22;24365;48.446;8.850;2023-04-19T10:14:45;12.90;54.10
38606;DHT22;24365;48.446;8.850;2023-04-19T10:19:46;13.00;53.80
38606;DHT22;24365;48.446;8.850;2023-04-19T10:25:06;13.20;52.10
38606;DHT22;24365;48.446;8.850;2023-04-19T10:30:15;13.20;52.00
38606;DHT22;24365;48.446;8.850;2023-04-19T10:35:18;13.40;52.30
38606;DHT22;24365;48.446;8.850;2023-04-19T10:45:40;14.00;50.10
38606;DHT22;24365;48.446;8.850;2023-04-19T10:50:56;14.60;50.20
38606;DHT22;24365;48.446;8.850;2023-04-19T10:55:57;15.20;48.20
38606;DHT22;24365;48.446;8.850;2023-04-19T11:06:18;15.40;44.70
38606;DHT22;24365;48.446;8.850;2023-04-19T11:11:20;15.00;45.80
38606;DHT22;24365;48.446;8.850;2023-04-19T11:16:22;15.00;46.00
38606;DHT22;24365;48.446;8.850;2023-04-19T11:21:23;15.10;47.60
38606;DHT22;24365;48.446;8.850;2023-04-19T11:26:25;15.10;44.20
38606;DHT22;24365;48.446;8.850;2023-04-19T11:31:26;15.10;45.70
38606;DHT22;24365;48.446;8.850;2023-04-19T11:36:27;14.90;45.00
38606;DHT22;24365;48.446;8.850;2023-04-19T11:41:28;14.60;44.40
38606;DHT22;24365;48.446;8.850;2023-04-19T11:51:45;14.20;45.30
38606;DHT22;24365;48.446;8.850;2023-04-19T12:02:07;13.80;46.70
38606;DHT22;24365;48.446;8.850;2023-04-19T12:07:09;13.40;47.60
38606;DHT22;24365;48.446;8.850;2023-04-19T12:12:09;13.10;48.30
38606;DHT22;24365;48.446;8.850;2023-04-19T12:17:11;13.00;49.30
38606;DHT22;24365;48.446;8.850;2023-04-19T12:22:14;12.90;50.10
38606;DHT22;24365;48.446;8.850;2023-04-19T12:27:16;12.80;49.80
38606;DHT22;24365;48.446;8.850;2023-04-19T12:32:17;12.70;51.10
38606;DHT22;24365;48.446;8.850;2023-04-19T12:37:18;12.60;50.70
38606;DHT22;24365;48.446;8.850;2023-04-19T12:42:19;12.50;51.60
38606;DHT22;24365;48.446;8.850;2023-04-19T12:47:21;12.40;50.70
38606;DHT22;24365;48.446;8.850;2023-04-19T12:52:22;12.40;50.90
38606;DHT22;24365;48.446;8.850;2023-04-19T12:57:23;12.40;50.30
38606;DHT22;24365;48.446;8.850;2023-04-19T13:02:24;12.30;50.80
38606;DHT22;24365;48.446;8.850;2023-04-19T13:07:25;12.40;50.90
38606;DHT22;24365;48.446;8.850;2023-04-19T13:12:28;12.30;51.10
38606;DHT22;24365;48.446;8.850;2023-04-19T13:17:28;12.20;51.40
38606;DHT22;24365;48.446;8.850;2023-04-19T13:22:31;12.10;53.00
38606;DHT22;24365;48.446;8.850;2023-04-19T13:27:32;12.10;52.50
38606;DHT22;24365;48.446;8.850;2023-04-19T13:32:33;12.10;53.20
38606;DHT22;24365;48.446;8.850;2023-04-19T13:37:34;12.10;54.20
38606;DHT22;24365;48.446;8.850;2023-04-19T13:42:35;11.90;54.60
38606;DHT22;24365;48.446;8.850;2023-04-19T13:47:35;11.90;55.30
38606;DHT22;24365;48.446;8.850;2023-04-19T13:52:36;11.90;55.10
38606;DHT22;24365;48.446;8.850;2023-04-19T13:57:39;11.80;54.60
38606;DHT22;24365;48.446;8.850;2023-04-19T14:02:39;11.60;55.00
38606;DHT22;24365;48.446;8.850;2023-04-19T14:07:40;11.50;55.60
38606;DHT22;24365;48.446;8.850;2023-04-19T14:12:41;11.40;56.30
38606;DHT22;24365;48.446;8.850;2023-04-19T14:17:42;11.30;56.80
38606;DHT22;24365;48.446;8.850;2023-04-19T14:22:44;11.30;57.70
38606;DHT22;24365;48.446;8.850;2023-04-19T14:27:45;11.20;58.20
38606;DHT22;24365;48.446;8.850;2023-04-19T14:32:46;11.10;59.40
38606;DHT22;24365;48.446;8.850;2023-04-19T14:37:47;11.00;61.00
38606;DHT22;24365;48.446;8.850;2023-04-19T14:42:49;10.80;63.20
38606;DHT22;24365;48.446;8.850;2023-04-19T14:47:49;10.70;65.30
38606;DHT22;24365;48.446;8.850;2023-04-19T14:52:50;10.60;66.70
38606;DHT22;24365;48.446;8.850;2023-04-19T14:57:53;10.60;67.40
38606;DHT22;24365;48.446;8.850;2023-04-19T15:02:54;10.60;68.30
38606;DHT22;24365;48.446;8.850;2023-04-19T15:07:56;10.40;69.50
38606;DHT22;24365;48.446;8.850;2023-04-19T15:12:57;10.30;71.20
38606;DHT22;24365;48.446;8.850;2023-04-19T15:17:58;10.30;72.40
38606;DHT22;24365;48.446;8.850;2023-04-19T15:22:58;10.20;72.20
38606;DHT22;24365;48.446;8.850;2023-04-19T15:27:59;10.20;71.90
38606;DHT22;24365;48.446;8.850;2023-04-19T15:33:01;10.20;71.90
38606;DHT22;24365;48.446;8.850;2023-04-19T15:38:02;10.20;72.90
38606;DHT22;24365;48.446;8.850;2023-04-19T15:43:02;10.20;72.50
38606;DHT22;24365;48.446;8.850;2023-04-19T15:48:03;10.20;72.30
38606;DHT22;24365;48.446;8.850;2023-04-19T15:53:05;10.20;72.10
38606;DHT22;24365;48.446;8.850;2023-04-19T15:58:06;10.00;72.80
38606;DHT22;24365;48.446;8.850;2023-04-19T16:03:07;9.80;72.60
38606;DHT22;24365;48.446;8.850;2023-04-19T16:08:08;9.80;71.50
38606;DHT22;24365;48.446;8.850;2023-04-19T16:13:11;9.60;71.30
38606;DHT22;24365;48.446;8.850;2023-04-19T16:18:15;9.60;73.00
38606;DHT22;24365;48.446;8.850;2023-04-19T16:23:16;9.60;72.60
38606;DHT22;24365;48.446;8.850;2023-04-19T16:28:17;9.50;72.70
38606;DHT22;24365;48.446;8.850;2023-04-19T16:33:19;9.50;72.60
38606;DHT22;24365;48.446;8.850;2023-04-19T16:38:21;9.50;72.80
38606;DHT22;24365;48.446;8.850;2023-04-19T16:43:22;9.50;71.80
38606;DHT22;24365;48.446;8.850;2023-04-19T16:48:23;9.40;70.90
38606;DHT22;24365;48.446;8.850;2023-04-19T16:53:24;9.30;71.30
38606;DHT22;24365;48.446;8.850;2023-04-19T16:58:25;9.40;72.20
38606;DHT22;24365;48.446;8.850;2023-04-19T17:03:26;9.50;71.60
38606;DHT22;24365;48.446;8.850;2023-04-19T17:08:29;9.60;71.40
38606;DHT22;24365;48.446;8.850;2023-04-19T17:13:30;9.70;71.10
38606;DHT22;24365;48.446;8.850;2023-04-19T17:18:32;9.80;70.30
38606;DHT22;24365;48.446;8.850;2023-04-19T17:23:33;9.90;70.10
38606;DHT22;24365;48.446;8.850;2023-04-19T17:28:35;9.90;69.10
38606;DHT22;24365;48.446;8.850;2023-04-19T17:33:36;9.90;68.80
38606;DHT22;24365;48.446;8.850;2023-04-19T17:38:38;9.80;69.40
38606;DHT22;24365;48.446;8.850;2023-04-19T17:43:39;9.80;69.10
38606;DHT22;24365;48.446;8.850;2023-04-19T17:48:40;9.80;69.40
38606;DHT22;24365;48.446;8.850;2023-04-19T17:53:41;9.80;69.10
38606;DHT22;24365;48.446;8.850;2023-04-19T17:58:42;9.70;68.90
38606;DHT22;24365;48.446;8.850;2023-04-19T18:03:43;9.70;68.60
38606;DHT22;24365;48.446;8.850;2023-04-19T18:08:44;9.70;69.00
38606;DHT22;24365;48.446;8.850;2023-04-19T18:13:45;9.60;68.70
38606;DHT22;24365;48.446;8.850;2023-04-19T18:18:46;9.60;68.80
38606;DHT22;24365;48.446;8.850;2023-04-19T18:23:47;9.60;69.50
38606;DHT22;24365;48.446;8.850;2023-04-19T18:28:48;9.50;69.30
38606;DHT22;24365;48.446;8.850;2023-04-19T18:33:48;9.50;69.00
38606;DHT22;24365;48.446;8.850;2023-04-19T18:38:50;9.50;69.10
38606;DHT22;24365;48.446;8.850;2023-04-19T18:43:51;9.50;68.80
38606;DHT22;24365;48.446;8.850;2023-04-19T18:48:54;9.40;69.20
38606;DHT22;24365;48.446;8.850;2023-04-19T18:53:55;9.30;69.10
38606;DHT22;24365;48.446;8.850;2023-04-19T18:58:56;9.30;69.50
38606;DHT22;24365;48.446;8.850;2023-04-19T19:03:59;9.20;69.60
38606;DHT22;24365;48.446;8.850;2023-04-19T19:09:01;9.10;70.40
38606;DHT22;24365;48.446;8.850;2023-04-19T19:14:03;9.10;70.50
38606;DHT22;24365;48.446;8.850;2023-04-19T19:19:07;9.00;70.50
38606;DHT22;24365;48.446;8.850;2023-04-19T19:24:13;9.10;70.10
38606;DHT22;24365;48.446;8.850;2023-04-19T19:29:15;9.00;70.60
38606;DHT22;24365;48.446;8.850;2023-04-19T19:34:16;9.00;70.30
38606;DHT22;24365;48.446;8.850;2023-04-19T19:39:17;9.00;70.40
38606;DHT22;24365;48.446;8.850;2023-04-19T19:44:18;8.90;70.60
38606;DHT22;24365;48.446;8.850;2023-04-19T19:49:20;8.90;71.00
38606;DHT22;24365;48.446;8.850;2023-04-19T19:54:21;8.80;71.40
38606;DHT22;24365;48.446;8.850;2023-04-19T19:59:22;8.80;71.30
38606;DHT22;24365;48.446;8.850;2023-04-19T20:04:22;8.70;71.60
38606;DHT22;24365;48.446;8.850;2023-04-19T20:09:23;8.70;71.30
38606;DHT22;24365;48.446;8.850;2023-04-19T20:14:27;8.70;72.20
38606;DHT22;24365;48.446;8.850;2023-04-19T20:19:29;8.70;70.70
38606;DHT22;24365;48.446;8.850;2023-04-19T20:24:30;8.50;71.60
38606;DHT22;24365;48.446;8.850;2023-04-19T20:29:31;8.50;71.30
38606;DHT22;24365;48.446;8.850;2023-04-19T20:34:32;8.40;71.00
38606;DHT22;24365;48.446;8.850;2023-04-19T20:39:33;8.30;71.60
38606;DHT22;24365;48.446;8.850;2023-04-19T20:44:34;8.30;71.50
38606;DHT22;24365;48.446;8.850;2023-04-19T20:49:35;8.20;71.40
38606;DHT22;24365;48.446;8.850;2023-04-19T20:54:36;8.10;71.20
38606;DHT22;24365;48.446;8.850;2023-04-19T20:59:38;8.00;71.20
38606;DHT22;24365;48.446;8.850;2023-04-19T21:04:40;7.90;71.10
38606;DHT22;24365;48.446;8.850;2023-04-19T21:09:41;7.90;71.10
38606;DHT22;24365;48.446;8.850;2023-04-19T21:14:42;7.90;70.80
38606;DHT22;24365;48.446;8.850;2023-04-19T21:19:44;7.80;70.20
38606;DHT22;24365;48.446;8.850;2023-04-19T21:24:45;7.60;70.80
38606;DHT22;24365;48.446;8.850;2023-04-19T21:29:46;7.50;71.30
38606;DHT22;24365;48.446;8.850;2023-04-19T21:34:47;7.40;70.50
38606;DHT22;24365;48.446;8.850;2023-04-19T21:39:47;7.40;70.80
38606;DHT22;24365;48.446;8.850;2023-04-19T21:44:48;7.30;70.60
38606;DHT22;24365;48.446;8.850;2023-04-19T21:49:50;7.30;70.30
38606;DHT22;24365;48.446;8.850;2023-04-19T21:54:51;7.10;71.40
38606;DHT22;24365;48.446;8.850;2023-04-19T21:59:52;7.20;69.40
38606;DHT22;24365;48.446;8.850;2023-04-19T22:04:53;7.10;69.50
38606;DHT22;24365;48.446;8.850;2023-04-19T22:09:54;7.00;69.70
38606;DHT22;24365;48.446;8.850;2023-04-19T22:14:56;6.90;69.70
38606;DHT22;24365;48.446;8.850;2023-04-19T22:19:57;6.90;69.60
38606;DHT22;24365;48.446;8.850;2023-04-19T22:24:59;6.80;69.00
38606;DHT22;24365;48.446;8.850;2023-04-19T22:30:02;6.70;69.30
38606;DHT22;24365;48.446;8.850;2023-04-19T22:35:03;6.60;69.60
38606;DHT22;24365;48.446;8.850;2023-04-19T22:40:04;6.50;69.40
38606;DHT22;24365;48.446;8.850;2023-04-19T22:45:06;6.40;69.10
38606;DHT22;24365;48.446;8.850;2023-04-19T22:50:08;6.30;69.40
38606;DHT22;24365;48.446;8.850;2023-04-19T22:55:09;6.30;68.70
38606;DHT22;24365;48.446;8.850;2023-04-19T23:00:10;6.20;68.90
38606;DHT22;24365;48.446;8.850;2023-04-19T23:05:11;6.10;68.70
38606;DHT22;24365;48.446;8.850;2023-04-19T23:10:12;6.00;68.00
38606;DHT22;24365;48.446;8.850;2023-04-19T23:15:13;6.00;67.90
38606;DHT22;24365;48.446;8.850;2023-04-19T23:20:15;5.90;67.90
38606;DHT22;24365;48.446;8.850;2023-04-19T23:25:17;5.80;67.70
38606;DHT22;24365;48.446;8.850;2023-04-19T23:30:18;5.60;68.80
38606;DHT22;24365;48.446;8.850;2023-04-19T23:35:19;5.60;68.50
38606;DHT22;24365;48.446;8.850;2023-04-19T23:40:19;5.60;68.30
38606;DHT22;24365;48.446;8.850;2023-04-19T23:45:21;5.50;68.60
38606;DHT22;24365;48.446;8.850;2023-04-19T23:50:22;5.40;68.90
38606;DHT22;24365;48.446;8.850;2023-04-19T23:55:23;5.40;68.20
